Boscobel, Wisconsin
Current Conditions -  °F | °C
As of 10:48 AM on Monday 26 Jan 2015 (Local Time) from KOVS Reporting Station
Overcast Overcast  
Wind Chill: 19°   Ceiling: 1400
Heat Index: 25°   Visibility: 10mi
Dew Point: 18°   Wind: 5mph
Humidity: 74%   Direction: 170°S
Pressure: 29.83"   Gusts: NA
Location:  43.13°N, 90.71°W
Report Text: KOVS 261648Z AUTO 17004KT 10SM BKN014 OVC019 M04/M08 A2983 RMK AO2
Loading
Personal Weather Stations






























Interactive Weather Map New forecast layout! Learn more

10-Day Weather Forecast

Advertisements
Track Severe Weather on mobile